createdAt,value
2022-09-07T00:00:40.988Z,11.77
2022-09-07T00:03:10.602Z,11.98
2022-09-07T00:05:42.638Z,11.95
2022-09-07T00:08:10.400Z,12.18
2022-09-07T00:10:38.434Z,11.93
2022-09-07T00:13:06.663Z,11.70
2022-09-07T00:15:34.876Z,11.45
2022-09-07T00:18:02.654Z,11.10
2022-09-07T00:20:31.802Z,12.20
2022-09-07T00:22:59.559Z,11.65
2022-09-07T00:25:30.743Z,12.00
2022-09-07T00:27:59.776Z,10.90
2022-09-07T00:30:27.635Z,12.75
2022-09-07T00:32:55.617Z,11.10
2022-09-07T00:35:23.446Z,11.60
2022-09-07T00:37:52.841Z,11.00
2022-09-07T00:40:20.629Z,13.90
2022-09-07T00:42:48.489Z,13.60
2022-09-07T00:45:17.484Z,13.43
2022-09-07T00:47:49.957Z,13.50
2022-09-07T00:50:20.732Z,13.38
2022-09-07T00:52:49.920Z,14.63
2022-09-07T00:55:19.323Z,14.18
2022-09-07T00:57:49.278Z,15.30
2022-09-07T01:00:17.289Z,14.88
2022-09-07T01:02:46.019Z,14.05
2022-09-07T01:05:16.945Z,14.18
2022-09-07T01:07:44.931Z,14.98
2022-09-07T01:10:12.767Z,15.25
2022-09-07T01:12:41.920Z,13.88
2022-09-07T01:15:10.224Z,14.55
2022-09-07T01:17:47.324Z,14.20
2022-09-07T01:20:35.881Z,15.52
2022-09-07T01:23:22.522Z,16.63
2022-09-07T01:25:57.792Z,16.83
2022-09-07T01:28:28.450Z,17.70
2022-09-07T01:30:57.739Z,17.00
2022-09-07T01:33:31.087Z,17.80
2022-09-07T01:36:04.346Z,18.25
2022-09-07T01:38:34.588Z,18.60
2022-09-07T01:41:03.763Z,17.88
2022-09-07T01:43:38.448Z,18.55
2022-09-07T01:46:09.524Z,19.15
2022-09-07T01:48:39.099Z,18.30
2022-09-07T01:51:12.721Z,19.48
2022-09-07T01:53:41.691Z,19.77
2022-09-07T01:56:11.747Z,18.88
2022-09-07T01:58:44.445Z,19.25
2022-09-07T02:01:15.319Z,18.33
2022-09-07T02:03:46.101Z,19.25
2022-09-07T02:06:16.154Z,20.00
2022-09-07T02:08:45.798Z,19.42
2022-09-07T02:11:15.950Z,18.25
2022-09-07T02:13:47.679Z,19.33
2022-09-07T02:16:16.465Z,18.02
2022-09-07T02:18:46.251Z,18.98
2022-09-07T02:21:16.492Z,17.88
2022-09-07T02:23:46.109Z,20.92
2022-09-07T02:26:15.498Z,20.17
2022-09-07T02:28:48.372Z,21.40
2022-09-07T02:31:16.274Z,19.65
2022-09-07T02:33:44.605Z,19.08
2022-09-07T02:36:13.159Z,21.15
2022-09-07T02:38:41.227Z,21.55
2022-09-07T02:41:24.204Z,19.58
2022-09-07T02:43:53.646Z,20.35
2022-09-07T02:46:24.968Z,21.50
2022-09-07T02:49:02.775Z,20.02
2022-09-07T02:51:33.598Z,22.08
2022-09-07T02:54:12.121Z,21.05
2022-09-07T02:56:46.594Z,22.42
2022-09-07T02:59:21.732Z,21.30
2022-09-07T03:01:56.353Z,20.98
2022-09-07T03:04:26.458Z,21.35
2022-09-07T03:06:56.843Z,21.83
2022-09-07T03:09:29.052Z,22.67
2022-09-07T03:11:57.396Z,23.20
2022-09-07T03:14:26.871Z,22.27
2022-09-07T03:16:57.063Z,22.80
2022-09-07T03:19:24.893Z,22.90
2022-09-07T03:21:53.060Z,24.55
2022-09-07T03:24:20.790Z,23.30
2022-09-07T03:26:49.961Z,23.13
2022-09-07T03:29:17.926Z,21.67
2022-09-07T03:31:47.448Z,23.38
2022-09-07T03:34:15.573Z,24.65
2022-09-07T03:36:43.968Z,23.35
2022-09-07T03:39:12.549Z,22.45
2022-09-07T03:41:40.342Z,24.40
2022-09-07T03:44:08.690Z,23.15
2022-09-07T03:46:37.111Z,23.48
2022-09-07T03:49:06.199Z,22.65
2022-09-07T03:51:34.244Z,23.75
2022-09-07T03:54:02.211Z,23.08
2022-09-07T03:56:30.283Z,22.52
2022-09-07T03:58:58.265Z,23.05
2022-09-07T04:01:27.102Z,22.40
2022-09-07T04:04:01.786Z,22.67
2022-09-07T04:06:31.518Z,23.17
2022-09-07T04:09:02.549Z,21.33
2022-09-07T04:11:31.881Z,22.35
2022-09-07T04:14:00.294Z,23.52
2022-09-07T04:16:28.699Z,23.20
2022-09-07T04:18:57.670Z,22.42
2022-09-07T04:21:26.248Z,22.27
2022-09-07T04:23:55.730Z,23.25
2022-09-07T04:26:24.371Z,24.17
2022-09-07T04:28:52.753Z,22.38
2022-09-07T04:31:20.991Z,22.17
2022-09-07T04:33:49.734Z,23.08
2022-09-07T04:36:18.364Z,24.00
2022-09-07T04:38:46.363Z,25.48
2022-09-07T04:41:16.405Z,26.52
2022-09-07T04:43:44.582Z,26.17
2022-09-07T04:46:15.828Z,26.00
2022-09-07T04:48:43.631Z,26.83
2022-09-07T04:51:11.639Z,28.92
2022-09-07T04:53:39.591Z,27.33
2022-09-07T04:56:07.748Z,26.55
2022-09-07T04:58:36.910Z,25.88
2022-09-07T05:01:05.882Z,26.02
2022-09-07T05:03:36.582Z,26.38
2022-09-07T05:06:04.783Z,26.85
2022-09-07T05:08:36.974Z,25.77
2022-09-07T05:11:04.938Z,24.87
2022-09-07T05:13:33.161Z,26.73
2022-09-07T05:16:08.287Z,25.00
2022-09-07T05:18:36.434Z,25.45
2022-09-07T05:21:11.483Z,24.95
2022-09-07T05:23:39.280Z,26.02
2022-09-07T05:26:07.669Z,26.13
2022-09-07T05:28:36.185Z,27.20
2022-09-07T05:31:21.451Z,29.08
2022-09-07T05:36:38.400Z,28.52
2022-09-07T05:39:06.832Z,27.33
2022-09-07T05:41:34.650Z,29.27
2022-09-07T05:46:52.279Z,29.30
2022-09-07T05:49:20.091Z,29.77
2022-09-07T05:51:48.569Z,28.95
2022-09-07T05:54:16.532Z,30.10
2022-09-07T05:56:44.320Z,29.67
2022-09-07T05:59:12.221Z,28.10
2022-09-07T06:01:40.285Z,28.67
2022-09-07T06:04:09.871Z,27.77
2022-09-07T06:06:38.991Z,28.45
2022-09-07T06:09:07.725Z,25.67
2022-09-07T06:11:35.525Z,28.90
2022-09-07T06:14:03.454Z,31.75
2022-09-07T06:16:34.102Z,29.85
2022-09-07T06:19:06.095Z,32.17
2022-09-07T06:21:37.570Z,30.92
2022-09-07T06:24:05.794Z,31.55
2022-09-07T06:26:33.639Z,30.35
2022-09-07T06:29:03.078Z,31.00
2022-09-07T06:31:30.978Z,32.25
2022-09-07T06:33:59.066Z,29.35
2022-09-07T06:36:28.507Z,31.13
2022-09-07T06:39:01.425Z,31.92
2022-09-07T06:44:18.135Z,29.77
2022-09-07T06:49:29.417Z,30.38
2022-09-07T06:51:57.230Z,31.30
2022-09-07T06:57:14.226Z,30.77
2022-09-07T06:59:41.959Z,28.73
2022-09-07T07:02:11.055Z,29.13
2022-09-07T07:04:41.094Z,29.00
2022-09-07T07:07:10.716Z,29.55
2022-09-07T07:09:39.964Z,29.52
2022-09-07T07:12:07.916Z,28.65
2022-09-07T07:14:38.378Z,28.60
2022-09-07T07:17:09.024Z,27.05
2022-09-07T07:19:36.990Z,28.85
2022-09-07T07:22:18.841Z,27.52
2022-09-07T07:24:54.084Z,25.55
2022-09-07T07:27:22.529Z,27.27
2022-09-07T07:29:50.521Z,25.67
2022-09-07T07:32:18.580Z,23.48
2022-09-07T07:34:46.314Z,23.65
2022-09-07T07:37:14.050Z,24.55
2022-09-07T07:42:31.306Z,24.02
2022-09-07T07:47:49.732Z,19.70
2022-09-07T07:50:33.682Z,19.23
2022-09-07T07:55:49.789Z,20.02
2022-09-07T07:58:19.049Z,20.52
2022-09-07T08:00:55.427Z,19.10
2022-09-07T08:03:24.875Z,19.98
2022-09-07T08:05:53.020Z,19.65
2022-09-07T08:08:20.765Z,20.63
2022-09-07T08:10:48.521Z,20.73
2022-09-07T08:13:16.310Z,19.00
2022-09-07T08:15:46.290Z,20.98
2022-09-07T08:18:15.097Z,20.77
2022-09-07T08:20:43.177Z,20.75
2022-09-07T08:23:11.987Z,19.58
2022-09-07T08:25:39.812Z,20.75
2022-09-07T08:28:07.570Z,19.40
2022-09-07T08:30:35.327Z,19.42
2022-09-07T08:33:04.741Z,17.80
2022-09-07T08:35:32.657Z,18.27
2022-09-07T08:38:00.441Z,16.77
2022-09-07T08:40:28.247Z,18.08
2022-09-07T08:43:03.745Z,17.15
2022-09-07T08:45:33.119Z,18.25
2022-09-07T08:48:01.238Z,16.77
2022-09-07T08:50:33.605Z,15.00
2022-09-07T08:53:03.804Z,15.70
2022-09-07T08:55:32.773Z,15.15
2022-09-07T08:58:05.413Z,15.00
2022-09-07T09:00:33.254Z,13.38
2022-09-07T09:05:56.925Z,13.48
2022-09-07T09:08:32.067Z,10.95
2022-09-07T09:11:05.128Z,11.05
2022-09-07T09:16:02.884Z,10.15
2022-09-07T09:18:45.644Z,9.65
2022-09-07T09:21:15.762Z,8.82
2022-09-07T09:23:44.629Z,9.18
2022-09-07T09:26:15.211Z,8.02
2022-09-07T09:28:43.282Z,8.15
2022-09-07T09:31:17.968Z,8.18
2022-09-07T09:33:47.627Z,7.75
2022-09-07T09:36:26.591Z,7.03
2022-09-07T09:38:55.557Z,7.57
2022-09-07T09:41:23.326Z,7.25
2022-09-07T09:43:53.764Z,7.22
2022-09-07T09:46:23.655Z,6.97
2022-09-07T09:48:54.773Z,6.43
2022-09-07T09:54:21.381Z,6.32
2022-09-07T09:56:49.874Z,5.90
2022-09-07T10:05:27.356Z,5.85
2022-09-07T10:07:55.296Z,5.63
2022-09-07T10:10:24.858Z,5.88
2022-09-07T10:12:54.207Z,5.95
2022-09-07T10:15:26.730Z,6.43
2022-09-07T10:17:54.647Z,5.22
2022-09-07T10:20:33.117Z,5.53
2022-09-07T10:23:00.945Z,5.32
2022-09-07T10:25:31.166Z,5.00
2022-09-07T10:28:02.654Z,5.40
2022-09-07T10:30:34.206Z,5.18
2022-09-07T10:33:04.767Z,5.65
2022-09-07T10:35:34.816Z,4.65
2022-09-07T10:38:15.097Z,5.05
2022-09-07T10:40:45.705Z,4.82
2022-09-07T10:43:23.600Z,5.28
2022-09-07T10:46:04.883Z,5.00
2022-09-07T10:48:35.578Z,5.13
2022-09-07T10:51:13.708Z,5.10
2022-09-07T10:53:44.233Z,4.40
2022-09-07T10:56:15.975Z,5.10
2022-09-07T10:59:04.525Z,4.38
2022-09-07T11:01:37.592Z,4.93
2022-09-07T11:04:13.793Z,4.55
2022-09-07T11:06:42.602Z,4.55
2022-09-07T11:09:19.070Z,4.63
2022-09-07T11:12:07.384Z,4.63
2022-09-07T11:14:39.852Z,4.65
2022-09-07T11:17:12.833Z,3.92
2022-09-07T11:19:42.501Z,4.75
2022-09-07T11:22:17.098Z,3.83
2022-09-07T11:25:29.089Z,3.78
2022-09-07T11:27:41.786Z,3.45
2022-09-07T11:30:16.462Z,3.10
2022-09-07T11:32:49.936Z,3.67
2022-09-07T11:35:20.232Z,3.22
2022-09-07T11:37:54.760Z,2.95
2022-09-07T11:40:26.356Z,3.47
2022-09-07T11:42:59.701Z,3.88
2022-09-07T11:45:31.611Z,3.60
2022-09-07T11:48:02.738Z,3.53
2022-09-07T11:50:32.934Z,3.42
2022-09-07T11:53:04.173Z,2.75
2022-09-07T11:55:36.314Z,3.00
2022-09-07T11:58:19.463Z,3.10
2022-09-07T12:00:51.971Z,3.53
2022-09-07T12:03:31.314Z,3.10
2022-09-07T12:06:11.784Z,3.13
2022-09-07T12:08:46.141Z,3.33
2022-09-07T12:11:34.958Z,3.75
2022-09-07T12:14:16.814Z,3.60
2022-09-07T12:16:53.904Z,3.35
2022-09-07T12:19:22.577Z,3.28
2022-09-07T12:21:56.237Z,2.67
2022-09-07T12:24:39.282Z,2.80
2022-09-07T12:27:07.305Z,2.67
2022-09-07T12:29:46.475Z,2.30
2022-09-07T12:35:03.007Z,2.75
2022-09-07T12:37:37.254Z,2.80
2022-09-07T12:40:24.767Z,3.00
2022-09-07T12:43:28.473Z,2.83
2022-09-07T12:46:00.715Z,2.83
2022-09-07T12:48:37.341Z,2.03
2022-09-07T12:51:07.832Z,2.80
2022-09-07T12:53:38.894Z,3.20
2022-09-07T12:56:17.686Z,2.80
2022-09-07T12:59:06.434Z,2.63
2022-09-07T13:01:44.116Z,2.40
2022-09-07T13:04:19.958Z,3.00
2022-09-07T13:07:08.457Z,3.05
2022-09-07T13:09:37.393Z,2.80
2022-09-07T13:15:33.564Z,2.92
2022-09-07T13:18:03.509Z,2.70
2022-09-07T13:20:34.808Z,2.72
2022-09-07T13:23:10.373Z,2.85
2022-09-07T13:25:51.329Z,2.60
2022-09-07T13:28:24.187Z,2.40
2022-09-07T13:30:57.479Z,2.25
2022-09-07T13:33:44.993Z,2.38
2022-09-07T13:36:32.271Z,2.60
2022-09-07T13:42:01.593Z,1.90
2022-09-07T13:44:31.407Z,1.65
2022-09-07T13:47:03.600Z,1.52
2022-09-07T13:49:55.754Z,1.40
2022-09-07T13:52:27.677Z,1.83
2022-09-07T13:55:03.243Z,1.70
2022-09-07T13:57:47.510Z,1.60
2022-09-07T14:00:16.042Z,1.85
2022-09-07T14:02:44.010Z,1.98
2022-09-07T14:05:17.921Z,1.75
2022-09-07T14:07:48.021Z,2.00
2022-09-07T14:10:19.394Z,1.88
2022-09-07T14:12:49.121Z,2.88
2022-09-07T14:15:24.387Z,2.25
2022-09-07T14:17:56.306Z,2.28
2022-09-07T14:20:24.875Z,2.13
2022-09-07T14:22:54.326Z,1.80
2022-09-07T14:25:26.243Z,1.83
2022-09-07T14:27:54.199Z,1.92
2022-09-07T14:30:23.612Z,2.42
2022-09-07T14:32:52.906Z,2.10
2022-09-07T14:35:22.087Z,2.33
2022-09-07T14:37:53.440Z,2.25
2022-09-07T14:40:23.917Z,2.03
2022-09-07T14:42:53.072Z,2.05
2022-09-07T14:45:30.974Z,2.28
2022-09-07T14:47:59.103Z,2.00
2022-09-07T14:50:28.334Z,1.95
2022-09-07T14:55:48.722Z,1.60
2022-09-07T14:58:23.472Z,2.05
2022-09-07T15:03:54.335Z,1.80
2022-09-07T15:09:28.136Z,1.90
2022-09-07T15:12:05.125Z,1.60
2022-09-07T15:14:36.327Z,2.08
2022-09-07T15:19:52.558Z,1.95
2022-09-07T15:22:22.028Z,1.98
2022-09-07T15:24:49.914Z,1.95
2022-09-07T15:27:25.157Z,2.15
2022-09-07T15:29:53.409Z,1.92
2022-09-07T15:32:21.552Z,2.42
2022-09-07T15:34:49.290Z,1.80
2022-09-07T15:40:14.234Z,2.05
2022-09-07T15:42:59.830Z,1.80
2022-09-07T15:45:28.346Z,1.77
2022-09-07T15:47:56.924Z,2.03
2022-09-07T15:50:24.866Z,1.92
2022-09-07T15:52:52.626Z,1.80
2022-09-07T15:55:20.334Z,2.20
2022-09-07T15:57:54.545Z,1.70
2022-09-07T16:00:22.676Z,1.67
2022-09-07T16:03:07.055Z,2.50
2022-09-07T16:05:35.817Z,1.75
2022-09-07T16:10:53.887Z,2.22
2022-09-07T16:13:25.861Z,1.67
2022-09-07T16:15:54.281Z,2.00
2022-09-07T16:18:37.615Z,2.17
2022-09-07T16:21:11.506Z,1.75
2022-09-07T16:23:40.735Z,1.92
2022-09-07T16:26:10.586Z,1.80
2022-09-07T16:28:42.009Z,1.88
2022-09-07T16:31:11.213Z,2.13
2022-09-07T16:33:39.008Z,2.35
2022-09-07T16:36:09.168Z,2.10
2022-09-07T16:38:45.521Z,1.55
2022-09-07T16:41:14.501Z,2.38
2022-09-07T16:43:44.073Z,1.85
2022-09-07T16:46:13.024Z,2.40
2022-09-07T16:48:40.955Z,2.22
2022-09-07T16:51:09.604Z,2.15
2022-09-07T16:53:39.713Z,1.77
2022-09-07T16:56:08.640Z,1.65
2022-09-07T16:58:37.897Z,1.88
2022-09-07T17:01:07.905Z,1.77
2022-09-07T17:03:36.933Z,1.65
2022-09-07T17:06:06.138Z,1.20
2022-09-07T17:08:34.171Z,1.75
2022-09-07T17:11:02.592Z,1.95
2022-09-07T17:13:31.346Z,1.35
2022-09-07T17:16:02.798Z,1.73
2022-09-07T17:21:20.007Z,1.42
2022-09-07T17:23:54.364Z,2.47
2022-09-07T17:26:26.579Z,1.80
2022-09-07T17:28:55.588Z,1.63
2022-09-07T17:34:14.393Z,3.40
2022-09-07T17:36:42.807Z,3.00
2022-09-07T17:39:16.428Z,3.10
2022-09-07T17:41:45.661Z,3.38
2022-09-07T17:44:13.842Z,2.97
2022-09-07T17:46:41.589Z,2.80
2022-09-07T17:49:12.422Z,3.05
2022-09-07T17:51:41.606Z,2.83
2022-09-07T17:54:12.012Z,2.83
2022-09-07T17:56:40.085Z,3.00
2022-09-07T18:01:56.050Z,2.45
2022-09-07T18:04:24.168Z,2.85
2022-09-07T18:06:53.941Z,2.50
2022-09-07T18:09:21.843Z,3.10
2022-09-07T18:11:50.849Z,2.83
2022-09-07T18:14:19.105Z,3.00
2022-09-07T18:16:49.150Z,3.30
2022-09-07T18:19:18.366Z,3.00
2022-09-07T18:21:48.020Z,2.88
2022-09-07T18:24:18.287Z,3.38
2022-09-07T18:26:50.694Z,2.92
2022-09-07T18:29:31.159Z,3.17
2022-09-07T18:32:00.902Z,3.25
2022-09-07T18:34:30.836Z,3.55
2022-09-07T18:36:59.330Z,2.95
2022-09-07T18:39:28.626Z,3.47
2022-09-07T18:41:56.575Z,2.90
2022-09-07T18:47:21.431Z,3.08
2022-09-07T18:49:49.984Z,3.15
2022-09-07T18:55:08.646Z,3.13
2022-09-07T18:57:37.431Z,2.58
2022-09-07T19:00:05.819Z,3.08
2022-09-07T19:02:34.261Z,2.63
2022-09-07T19:07:50.183Z,2.88
2022-09-07T19:10:19.406Z,2.75
2022-09-07T19:12:47.208Z,2.60
2022-09-07T19:15:15.408Z,2.78
2022-09-07T19:17:43.138Z,2.63
2022-09-07T19:20:11.394Z,2.90
2022-09-07T19:22:39.271Z,2.97
2022-09-07T19:25:07.365Z,3.20
2022-09-07T19:27:36.420Z,2.75
2022-09-07T19:30:04.311Z,3.10
2022-09-07T19:32:32.031Z,3.47
2022-09-07T19:34:59.778Z,2.95
2022-09-07T19:37:28.917Z,3.10
2022-09-07T19:39:56.874Z,3.05
2022-09-07T19:42:24.964Z,3.30
2022-09-07T19:44:54.601Z,2.33
2022-09-07T19:47:23.252Z,2.90
2022-09-07T19:49:52.243Z,2.42
2022-09-07T19:52:20.033Z,3.15
2022-09-07T19:54:48.075Z,3.00
2022-09-07T19:57:15.838Z,3.10
2022-09-07T19:59:45.589Z,2.95
2022-09-07T20:02:14.694Z,3.53
2022-09-07T20:04:42.600Z,3.05
2022-09-07T20:07:10.342Z,2.60
2022-09-07T20:09:38.312Z,2.90
2022-09-07T20:12:08.035Z,2.92
2022-09-07T20:14:35.817Z,2.90
2022-09-07T20:17:03.700Z,3.20
2022-09-07T20:19:32.902Z,3.10
2022-09-07T20:22:00.595Z,3.33
2022-09-07T20:24:28.431Z,3.22
2022-09-07T20:26:56.542Z,2.88
2022-09-07T20:29:27.809Z,2.95
2022-09-07T20:31:57.315Z,3.13
2022-09-07T20:34:25.280Z,3.30
2022-09-07T20:36:54.678Z,3.20
2022-09-07T20:39:22.507Z,3.30
2022-09-07T20:41:50.527Z,3.28
2022-09-07T20:44:18.497Z,3.58
2022-09-07T20:46:46.323Z,3.40
2022-09-07T20:49:14.438Z,3.00
2022-09-07T20:51:42.436Z,3.22
2022-09-07T20:54:11.783Z,3.00
2022-09-07T20:56:39.888Z,3.38
2022-09-07T20:59:07.865Z,3.05
2022-09-07T21:01:36.798Z,2.90
2022-09-07T21:04:06.413Z,2.88
2022-09-07T21:06:34.635Z,3.53
2022-09-07T21:09:02.604Z,2.90
2022-09-07T21:11:33.317Z,2.85
2022-09-07T21:14:02.240Z,3.15
2022-09-07T21:16:30.238Z,3.47
2022-09-07T21:18:59.238Z,3.38
2022-09-07T21:21:29.823Z,3.63
2022-09-07T21:23:59.390Z,3.20
2022-09-07T21:26:27.975Z,3.38
2022-09-07T21:28:57.877Z,3.83
2022-09-07T21:31:25.902Z,3.22
2022-09-07T21:33:55.436Z,3.70
2022-09-07T21:36:23.680Z,3.58
2022-09-07T21:38:51.719Z,5.85
2022-09-07T21:41:20.593Z,4.28
2022-09-07T21:43:48.447Z,4.45
2022-09-07T21:46:18.476Z,4.40
2022-09-07T21:48:46.774Z,4.80
2022-09-07T21:51:14.898Z,4.68
2022-09-07T21:53:42.974Z,4.57
2022-09-07T21:56:11.845Z,4.68
2022-09-07T21:58:40.306Z,4.30
2022-09-07T22:01:11.807Z,4.50
2022-09-07T22:03:41.199Z,4.05
2022-09-07T22:06:10.979Z,4.60
2022-09-07T22:08:39.768Z,4.30
2022-09-07T22:11:08.530Z,4.38
2022-09-07T22:13:36.879Z,4.13
2022-09-07T22:16:05.134Z,4.50
2022-09-07T22:18:33.426Z,4.90
2022-09-07T22:21:03.328Z,5.38
2022-09-07T22:23:31.334Z,5.03
2022-09-07T22:25:59.078Z,3.95
2022-09-07T22:28:27.554Z,5.82
2022-09-07T22:30:55.290Z,5.45
2022-09-07T22:33:23.273Z,4.30
2022-09-07T22:35:51.076Z,4.55
2022-09-07T22:38:20.161Z,5.00
2022-09-07T22:40:48.239Z,5.38
2022-09-07T22:43:16.001Z,4.53
2022-09-07T22:45:43.720Z,4.53
2022-09-07T22:48:11.669Z,4.90
2022-09-07T22:50:39.418Z,5.30
2022-09-07T22:53:07.436Z,4.63
2022-09-07T22:55:40.261Z,4.50
2022-09-07T22:58:08.347Z,4.40
2022-09-07T23:00:36.578Z,4.15
2022-09-07T23:03:05.134Z,4.68
2022-09-07T23:05:36.803Z,4.18
2022-09-07T23:08:07.520Z,3.97
2022-09-07T23:10:35.836Z,3.85
2022-09-07T23:13:05.371Z,4.47
2022-09-07T23:15:36.139Z,4.05
2022-09-07T23:18:03.895Z,4.00
2022-09-07T23:20:31.668Z,4.47
2022-09-07T23:22:59.387Z,4.35
2022-09-07T23:25:29.374Z,4.38
2022-09-07T23:27:57.513Z,5.05
2022-09-07T23:30:26.616Z,4.07
2022-09-07T23:32:54.352Z,4.30
2022-09-07T23:35:22.446Z,3.67
2022-09-07T23:37:50.516Z,4.43
2022-09-07T23:40:20.301Z,4.28
2022-09-07T23:42:48.510Z,3.80
2022-09-07T23:45:16.366Z,4.47
2022-09-07T23:47:45.437Z,4.20
2022-09-07T23:50:13.187Z,4.75
2022-09-07T23:52:41.621Z,5.47
2022-09-07T23:55:10.106Z,5.30
2022-09-07T23:57:38.035Z,5.25
